Time;durP1;ratioP1;P1;durP2;ratioP2;P2;SDS_P1;SDS_P2;PMS_P1;PMS_P2;Temp;Humidity;BMP_temperature;BMP_pressure;BME280_temperature;BME280_humidity;BME280_pressure;Samples;Min_cycle;Max_cycle;Signal;HPM_P1;HPM_P2
2022/04/02 00:00:59;;;;;;;5.27;3.63;;;3.20;67.90;;;;;;4997074;28;20807;-92
2022/04/02 00:03:25;;;;;;;6.50;3.83;;;3.20;68.40;;;;;;4998703;28;20417;-92
2022/04/02 05:05:31;;;;;;;2.05;1.67;;;2.20;65.40;;;;;;5034062;28;20222;-91
2022/04/02 05:07:58;;;;;;;7.25;2.60;;;2.30;65.60;;;;;;5019164;28;20170;-90
2022/04/02 05:10:24;;;;;;;4.15;2.22;;;2.30;65.50;;;;;;5018291;28;20178;-91
2022/04/02 05:12:50;;;;;;;2.53;1.75;;;2.20;65.60;;;;;;5018604;28;20178;-90
2022/04/02 05:15:16;;;;;;;3.83;1.93;;;2.30;65.90;;;;;;5019348;28;20653;-91
2022/04/02 05:17:45;;;;;;;7.25;2.50;;;2.30;65.80;;;;;;5019951;28;20852;-90
2022/04/02 05:20:14;;;;;;;5.03;2.92;;;2.30;65.90;;;;;;5020565;28;20292;-90
2022/04/02 05:22:41;;;;;;;5.63;1.95;;;2.30;65.80;;;;;;5018351;28;20177;-91
2022/04/02 05:25:07;;;;;;;2.40;2.20;;;2.30;65.70;;;;;;5002606;28;20198;-90
2022/04/02 05:27:34;;;;;;;3.67;2.67;;;2.40;65.50;;;;;;5019717;28;20192;-90
2022/04/02 05:30:00;;;;;;;4.90;2.15;;;2.30;65.70;;;;;;5018734;28;20182;-90
2022/04/02 05:32:28;;;;;;;3.03;1.77;;;2.30;65.90;;;;;;5039219;28;20598;-91
2022/04/02 05:34:54;;;;;;;3.35;2.28;;;2.30;65.90;;;;;;5037914;28;20193;-90
2022/04/02 05:37:20;;;;;;;5.43;1.45;;;2.30;65.70;;;;;;5020048;28;20273;-91
2022/04/02 05:39:46;;;;;;;3.42;2.20;;;2.30;65.80;;;;;;5022203;28;20205;-90
2022/04/02 05:42:12;;;;;;;5.68;2.47;;;2.20;65.80;;;;;;5044701;28;20185;-90
2022/04/02 05:44:39;;;;;;;5.90;2.33;;;2.20;65.90;;;;;;5027940;28;20180;-90
2022/04/02 05:47:06;;;;;;;4.28;2.25;;;2.40;66.10;;;;;;5029392;28;20182;-90
2022/04/02 05:49:32;;;;;;;8.10;4.28;;;2.40;65.60;;;;;;5023483;28;20174;-91
2022/04/02 05:51:58;;;;;;;5.50;2.42;;;2.30;65.80;;;;;;5043585;28;20179;-90
2022/04/02 05:54:24;;;;;;;4.07;2.75;;;2.40;65.80;;;;;;5030541;28;20170;-90
2022/04/02 05:56:50;;;;;;;3.87;2.70;;;2.50;65.50;;;;;;5034816;28;20217;-91
2022/04/02 05:59:16;;;;;;;2.55;2.20;;;2.50;65.30;;;;;;5032305;28;20413;-90
2022/04/02 06:01:42;;;;;;;4.80;2.20;;;2.70;65.30;;;;;;5025063;28;20185;-90
2022/04/02 06:04:09;;;;;;;2.75;1.95;;;2.70;64.80;;;;;;5017082;28;20440;-90
2022/04/02 06:06:36;;;;;;;2.60;2.22;;;2.70;64.60;;;;;;5018613;28;20356;-90
2022/04/02 06:09:03;;;;;;;2.30;1.50;;;2.70;64.60;;;;;;5017142;28;20190;-90
2022/04/02 06:11:30;;;;;;;2.78;2.13;;;2.70;64.20;;;;;;5016365;28;20246;-90
2022/04/02 06:13:57;;;;;;;6.38;2.70;;;2.60;64.00;;;;;;5014492;28;20200;-90
2022/04/02 06:16:23;;;;;;;4.70;3.03;;;2.90;63.80;;;;;;5013698;28;20198;-90
2022/04/02 06:18:49;;;;;;;8.65;2.30;;;3.00;63.30;;;;;;5015260;28;20250;-89
2022/04/02 06:21:15;;;;;;;2.95;2.38;;;3.00;62.90;;;;;;5015325;28;20232;-89
2022/04/02 06:23:42;;;;;;;4.45;2.50;;;3.00;62.70;;;;;;5014061;28;20265;-89
2022/04/02 06:26:08;;;;;;;3.80;2.97;;;3.20;62.30;;;;;;5017630;28;20191;-90
2022/04/02 06:28:36;;;;;;;9.00;2.50;;;3.60;61.50;;;;;;5017569;28;20789;-89
2022/04/02 06:31:05;;;;;;;5.05;2.33;;;3.70;60.70;;;;;;5016611;28;20187;-90
2022/04/02 06:33:32;;;;;;;4.70;1.85;;;3.60;60.60;;;;;;5029805;23;20218;-89
2022/04/02 06:35:59;;;;;;;4.13;2.53;;;3.70;60.10;;;;;;5016756;28;20265;-89
2022/04/02 06:38:25;;;;;;;3.80;2.60;;;3.70;60.60;;;;;;5018474;28;20198;-89
2022/04/02 06:40:51;;;;;;;3.80;2.83;;;3.80;59.80;;;;;;5015909;28;20218;-89
2022/04/02 06:43:17;;;;;;;4.03;2.13;;;3.60;60.30;;;;;;5017581;28;20422;-90
2022/04/02 06:45:43;;;;;;;3.40;2.17;;;3.50;60.60;;;;;;5016079;28;20187;-90
2022/04/02 06:48:09;;;;;;;2.70;2.10;;;3.20;61.10;;;;;;5016472;28;20174;-90
2022/04/02 06:50:36;;;;;;;3.92;2.50;;;3.30;61.90;;;;;;5018259;28;20246;-90
2022/04/02 06:53:02;;;;;;;4.00;2.13;;;3.20;62.30;;;;;;5020765;28;20200;-90
2022/04/02 06:55:28;;;;;;;3.27;2.40;;;3.20;62.50;;;;;;5021594;28;20244;-90
2022/04/02 06:57:56;;;;;;;3.35;2.20;;;3.20;62.70;;;;;;5022755;28;20421;-91
2022/04/02 07:00:23;;;;;;;9.15;2.65;;;3.10;63.40;;;;;;5020124;28;20202;-90
2022/04/02 07:02:49;;;;;;;5.13;2.30;;;3.30;63.50;;;;;;5023042;28;20210;-90
2022/04/02 07:05:15;;;;;;;7.38;2.95;;;3.30;63.00;;;;;;5029599;28;20189;-90
2022/04/02 07:07:42;;;;;;;5.00;3.00;;;3.30;63.10;;;;;;5026936;28;20198;-90
2022/04/02 07:10:09;;;;;;;4.80;2.40;;;3.40;62.80;;;;;;5023113;28;20189;-90
2022/04/02 07:12:35;;;;;;;2.95;2.40;;;3.40;63.10;;;;;;5022575;28;20198;-89
2022/04/02 07:15:03;;;;;;;3.75;2.50;;;3.30;63.10;;;;;;5021273;28;20186;-90
2022/04/02 07:17:29;;;;;;;9.00;2.97;;;3.30;63.00;;;;;;5021353;28;20178;-90
2022/04/02 07:19:57;;;;;;;7.03;2.63;;;3.10;63.10;;;;;;5022204;28;20375;-90
2022/04/02 07:22:24;;;;;;;4.63;2.72;;;3.20;63.40;;;;;;5026987;28;20441;-90
2022/04/02 07:24:52;;;;;;;3.25;2.45;;;3.40;62.90;;;;;;5029326;28;20297;-91
2022/04/02 07:27:26;;;;;;;6.88;2.42;;;3.50;62.70;;;;;;5033918;28;20170;-91
2022/04/02 07:29:56;;;;;;;3.60;2.13;;;3.50;62.70;;;;;;5036396;28;20242;-91
2022/04/02 07:32:23;;;;;;;5.40;2.78;;;3.50;62.90;;;;;;5037003;28;20190;-94
2022/04/02 07:34:52;;;;;;;3.35;2.20;;;3.50;62.70;;;;;;5036891;28;20183;-89
2022/04/02 07:37:40;;;;;;;6.40;2.95;;;3.50;62.80;;;;;;5037589;28;20166;-91
2022/04/02 07:40:12;;;;;;;5.20;3.00;;;3.40;62.70;;;;;;5038121;28;20230;-92
2022/04/02 07:42:58;;;;;;;3.88;2.45;;;3.60;62.50;;;;;;5038750;28;20258;-94
2022/04/02 07:45:32;;;;;;;5.10;2.65;;;3.50;62.70;;;;;;4998908;28;20174;-94
2022/04/02 07:48:16;;;;;;;3.67;2.15;;;3.80;62.50;;;;;;5022622;28;20159;-94
2022/04/02 07:50:44;;;;;;;5.22;3.45;;;3.70;61.70;;;;;;5038296;28;20187;-96
2022/04/02 07:53:22;;;;;;;4.65;3.40;;;3.80;61.50;;;;;;5038946;28;20183;-96
2022/04/02 07:55:57;;;;;;;6.60;2.60;;;3.90;61.20;;;;;;5038222;28;20174;-94
2022/04/02 07:58:28;;;;;;;8.43;2.60;;;3.90;60.80;;;;;;5037739;28;20205;-93
2022/04/02 08:01:12;;;;;;;2.90;2.47;;;3.80;61.00;;;;;;5027004;28;20288;-93
2022/04/02 08:03:43;;;;;;;5.25;2.38;;;4.00;61.20;;;;;;5032550;28;20195;-95
2022/04/02 08:06:11;;;;;;;5.82;2.92;;;3.90;61.10;;;;;;5032718;28;20186;-93
2022/04/02 08:08:37;;;;;;;6.93;2.70;;;4.00;60.60;;;;;;5023487;28;20174;-94
2022/04/02 08:11:03;;;;;;;2.65;2.45;;;4.20;60.20;;;;;;5024661;28;20182;-94
2022/04/02 08:13:30;;;;;;;3.63;2.83;;;4.30;59.60;;;;;;5028279;28;20202;-95
2022/04/02 08:15:59;;;;;;;7.07;2.22;;;4.40;59.10;;;;;;5034807;28;20514;-93
2022/04/02 08:18:26;;;;;;;8.30;3.65;;;4.50;58.50;;;;;;5015638;28;20193;-93
2022/04/02 08:20:54;;;;;;;4.63;2.60;;;4.30;58.60;;;;;;5034832;28;20241;-93
2022/04/02 08:23:20;;;;;;;4.35;2.40;;;4.30;58.80;;;;;;5024394;28;20234;-93
2022/04/02 08:26:27;;;;;;;5.65;2.70;;;4.30;58.70;;;;;;5022651;28;20186;-94
2022/04/02 08:29:07;;;;;;;2.38;2.00;;;4.20;58.80;;;;;;4998015;28;20186;-92
2022/04/02 08:31:57;;;;;;;5.00;2.53;;;4.10;58.60;;;;;;5023422;28;20531;-93
2022/04/02 08:34:53;;;;;;;8.55;2.55;;;4.10;59.00;;;;;;5026233;28;20194;-93
2022/04/02 08:37:42;;;;;;;5.05;2.80;;;4.60;58.20;;;;;;5023943;28;20178;-89
2022/04/02 08:40:36;;;;;;;6.18;2.15;;;4.80;57.20;;;;;;5019387;28;20281;-89
2022/04/02 08:43:22;;;;;;;4.05;1.90;;;4.80;56.50;;;;;;5021760;28;20732;-89
2022/04/02 08:46:20;;;;;;;6.00;2.55;;;5.00;56.00;;;;;;5023996;28;20174;-90
2022/04/02 08:49:13;;;;;;;4.22;2.50;;;4.90;55.60;;;;;;5026092;28;20171;-89
2022/04/02 08:51:39;;;;;;;5.53;2.88;;;5.10;54.70;;;;;;5021879;28;20175;-89
2022/04/02 08:54:14;;;;;;;6.33;2.20;;;5.10;53.70;;;;;;5018313;28;20185;-89
2022/04/02 08:56:47;;;;;;;6.28;2.25;;;5.00;53.20;;;;;;5018634;28;20405;-88
2022/04/02 08:59:32;;;;;;;2.13;1.92;;;4.90;53.50;;;;;;5020290;28;20186;-89
2022/04/02 09:02:22;;;;;;;4.07;2.92;;;5.00;53.60;;;;;;5026501;28;20162;-91
2022/04/02 09:05:08;;;;;;;3.85;2.30;;;5.00;53.70;;;;;;5028775;28;20193;-92
2022/04/02 09:08:07;;;;;;;6.78;2.80;;;5.30;53.80;;;;;;5028050;28;20189;-93
2022/04/02 09:10:51;;;;;;;6.47;2.97;;;5.60;52.90;;;;;;5024458;28;20171;-93
2022/04/02 09:14:08;;;;;;;6.05;2.80;;;5.80;52.40;;;;;;5021497;28;20201;-92
2022/04/02 09:16:57;;;;;;;3.45;2.78;;;6.10;51.30;;;;;;5016907;28;20233;-93
2022/04/02 09:19:48;;;;;;;5.20;2.58;;;5.90;51.00;;;;;;4973395;28;20217;-92
2022/04/02 09:22:38;;;;;;;6.22;2.20;;;6.00;51.10;;;;;;5018437;28;20198;-93
2022/04/02 09:25:45;;;;;;;3.92;2.22;;;5.80;50.00;;;;;;5023491;28;20155;-93
2022/04/02 09:28:41;;;;;;;3.85;2.17;;;5.70;50.40;;;;;;4929912;29;20185;-93
2022/04/02 09:31:47;;;;;;;5.25;2.58;;;5.90;50.50;;;;;;5022740;28;20261;-93
2022/04/02 09:34:35;;;;;;;2.33;1.90;;;6.00;49.30;;;;;;5023365;28;20194;-93
2022/04/02 09:37:13;;;;;;;7.28;5.60;;;5.90;49.30;;;;;;5019525;28;20225;-93
2022/04/02 09:40:03;;;;;;;5.03;3.20;;;6.10;48.10;;;;;;5024954;28;20198;-95
2022/04/02 09:42:45;;;;;;;7.38;2.30;;;6.30;47.10;;;;;;5024554;28;20250;-93
2022/04/02 09:45:21;;;;;;;6.85;3.47;;;6.50;47.10;;;;;;5023640;28;20178;-93
2022/04/02 09:48:23;;;;;;;5.32;2.65;;;6.60;46.60;;;;;;5024651;28;20197;-93
2022/04/02 09:50:56;;;;;;;3.60;2.95;;;6.50;47.20;;;;;;5028892;28;20178;-94
2022/04/02 09:53:26;;;;;;;4.75;2.75;;;6.70;47.20;;;;;;5026612;28;20226;-93
2022/04/02 09:56:16;;;;;;;4.68;2.22;;;6.90;46.90;;;;;;5025503;28;20174;-93
2022/04/02 09:59:00;;;;;;;5.32;2.40;;;7.00;45.40;;;;;;5022639;28;20209;-93
2022/04/02 10:01:39;;;;;;;4.32;2.58;;;6.90;44.60;;;;;;5029423;28;20210;-93
2022/04/02 10:04:15;;;;;;;4.20;2.78;;;6.90;46.00;;;;;;5029944;28;20163;-93
2022/04/02 10:06:43;;;;;;;4.45;3.10;;;7.00;47.00;;;;;;5029304;28;20189;-93
2022/04/02 10:09:13;;;;;;;5.07;2.78;;;6.90;47.20;;;;;;5022428;28;20183;-93
2022/04/02 10:11:52;;;;;;;2.97;2.65;;;6.80;46.20;;;;;;5018930;28;20205;-92
2022/04/02 10:14:26;;;;;;;6.68;2.38;;;6.70;45.70;;;;;;5023573;28;20185;-91
2022/04/02 10:16:55;;;;;;;7.28;2.15;;;6.70;46.10;;;;;;5024367;28;20273;-91
2022/04/02 10:19:33;;;;;;;2.95;2.65;;;6.90;46.40;;;;;;5027720;28;20186;-91
2022/04/02 10:22:02;;;;;;;3.35;2.33;;;6.90;47.70;;;;;;5024948;28;20194;-91
2022/04/02 10:24:40;;;;;;;3.75;2.47;;;6.80;46.80;;;;;;5026837;28;20179;-91
2022/04/02 10:27:10;;;;;;;6.47;3.30;;;6.60;46.70;;;;;;5021460;28;20186;-91
2022/04/02 10:29:54;;;;;;;3.70;2.45;;;6.50;47.10;;;;;;5031522;28;20177;-91
2022/04/02 10:32:38;;;;;;;2.25;2.00;;;6.20;45.70;;;;;;5035181;28;20332;-91
2022/04/02 10:35:05;;;;;;;3.63;2.63;;;6.50;45.10;;;;;;5034495;28;20186;-91
2022/04/02 10:37:51;;;;;;;3.42;2.20;;;6.70;44.10;;;;;;5026446;28;20178;-91
2022/04/02 10:40:19;;;;;;;4.05;3.08;;;6.90;43.20;;;;;;5019697;28;20720;-91
2022/04/02 10:43:07;;;;;;;4.60;2.92;;;6.80;43.20;;;;;;5028709;28;20202;-91
2022/04/02 10:45:36;;;;;;;4.20;3.38;;;6.80;44.30;;;;;;5033044;28;20193;-92
2022/04/02 10:48:13;;;;;;;2.83;2.50;;;6.70;45.20;;;;;;5037724;28;20194;-92
2022/04/02 10:50:41;;;;;;;4.97;2.97;;;6.80;46.00;;;;;;5037844;28;20175;-93
2022/04/02 10:53:10;;;;;;;5.53;3.30;;;6.80;46.30;;;;;;5038002;28;20269;-92
2022/04/02 10:55:45;;;;;;;3.03;2.45;;;6.80;46.70;;;;;;5037989;28;20179;-92
2022/04/02 10:58:12;;;;;;;6.20;3.63;;;6.80;47.10;;;;;;5038043;28;20170;-92
2022/04/02 11:00:43;;;;;;;5.75;3.40;;;6.80;46.90;;;;;;5019241;28;20215;-92
2022/04/02 11:03:19;;;;;;;5.13;3.15;;;6.90;47.30;;;;;;5034468;28;20229;-92
2022/04/02 11:05:46;;;;;;;3.63;3.17;;;6.90;47.60;;;;;;5030672;28;20238;-92
2022/04/02 11:08:12;;;;;;;3.28;2.40;;;6.90;46.90;;;;;;5039355;28;20178;-92
2022/04/02 11:10:38;;;;;;;3.28;2.65;;;6.80;47.20;;;;;;5053883;28;20174;-92
2022/04/02 11:13:09;;;;;;;3.22;2.70;;;7.00;46.90;;;;;;5048391;28;20205;-92
2022/04/02 11:15:42;;;;;;;4.30;3.22;;;7.10;46.80;;;;;;5041026;28;20272;-92
2022/04/02 11:18:26;;;;;;;5.28;3.50;;;7.20;46.40;;;;;;5040462;28;20178;-93
2022/04/02 11:21:03;;;;;;;4.65;2.50;;;7.20;45.70;;;;;;5041998;28;20244;-93
2022/04/02 11:23:55;;;;;;;4.63;2.35;;;7.40;45.50;;;;;;5025238;28;20202;-93
2022/04/02 11:26:26;;;;;;;4.15;3.00;;;7.40;45.00;;;;;;5027111;28;20185;-92
2022/04/02 11:28:55;;;;;;;6.88;3.42;;;7.20;45.40;;;;;;5032108;28;20163;-93
2022/04/02 11:31:28;;;;;;;9.68;2.90;;;7.20;45.80;;;;;;5029517;28;20186;-93
2022/04/02 11:33:57;;;;;;;4.65;2.80;;;7.20;45.80;;;;;;5032633;28;20206;-92
2022/04/02 11:36:49;;;;;;;3.08;2.75;;;7.40;45.20;;;;;;5029168;28;20209;-92
2022/04/02 11:39:29;;;;;;;3.20;2.47;;;7.60;44.00;;;;;;5027424;28;20187;-92
2022/04/02 11:41:57;;;;;;;7.57;2.50;;;7.60;43.90;;;;;;5033342;28;20173;-94
2022/04/02 11:44:38;;;;;;;2.95;2.60;;;7.20;44.30;;;;;;5030477;28;20179;-93
2022/04/02 11:47:06;;;;;;;4.63;3.40;;;6.80;45.30;;;;;;5025235;28;20182;-93
2022/04/02 11:49:39;;;;;;;9.23;3.00;;;6.70;46.10;;;;;;5028231;28;20236;-93
2022/04/02 11:52:13;;;;;;;4.80;2.90;;;6.80;47.50;;;;;;5012639;28;20244;-92
2022/04/02 11:54:41;;;;;;;9.73;2.15;;;6.70;47.10;;;;;;5029958;28;20171;-93
2022/04/02 11:57:12;;;;;;;4.43;3.00;;;6.30;47.50;;;;;;5031373;28;20187;-92
2022/04/02 11:59:58;;;;;;;5.57;3.70;;;6.20;47.90;;;;;;5028570;28;20182;-92
2022/04/02 12:02:47;;;;;;;3.55;2.90;;;6.60;47.50;;;;;;5030709;28;20194;-93
2022/04/02 12:05:14;;;;;;;3.92;2.38;;;6.70;46.50;;;;;;5033131;28;20162;-92
2022/04/02 12:07:43;;;;;;;3.92;2.90;;;6.60;46.30;;;;;;5032629;28;20163;-92
2022/04/02 12:10:13;;;;;;;7.07;2.60;;;6.50;46.10;;;;;;5033276;28;20166;-92
2022/04/02 12:12:43;;;;;;;8.43;3.10;;;6.80;46.20;;;;;;5033511;28;20198;-92
2022/04/02 12:15:11;;;;;;;3.85;2.53;;;7.00;45.50;;;;;;5036270;28;20159;-91
2022/04/02 12:17:38;;;;;;;3.00;2.38;;;7.30;44.50;;;;;;5036553;28;20183;-92
2022/04/02 12:20:07;;;;;;;4.50;2.97;;;7.40;43.80;;;;;;5027294;28;20202;-92
2022/04/02 12:22:39;;;;;;;9.20;3.45;;;8.00;42.90;;;;;;5006921;28;20202;-92
2022/04/02 12:25:13;;;;;;;4.68;2.75;;;7.80;42.30;;;;;;5021180;28;20194;-93
2022/04/02 12:27:47;;;;;;;6.13;3.85;;;7.40;42.90;;;;;;5020866;28;20267;-92
2022/04/02 12:30:21;;;;;;;3.35;2.35;;;7.30;43.40;;;;;;5022206;28;20250;-92
2022/04/02 12:33:07;;;;;;;5.05;3.22;;;7.50;43.00;;;;;;5027014;28;20224;-94
2022/04/02 12:35:34;;;;;;;2.65;2.30;;;7.80;42.50;;;;;;5027747;28;20174;-95
2022/04/02 12:38:05;;;;;;;6.93;3.15;;;7.70;42.30;;;;;;5026866;28;20190;-94
2022/04/02 12:40:33;;;;;;;3.95;2.30;;;7.70;41.90;;;;;;5023550;28;20265;-94
2022/04/02 12:43:05;;;;;;;4.65;3.25;;;7.40;41.90;;;;;;5022049;28;20201;-94
2022/04/02 12:45:33;;;;;;;5.97;2.75;;;7.50;42.30;;;;;;5026036;28;20201;-94
2022/04/02 12:48:04;;;;;;;3.28;2.97;;;7.50;42.40;;;;;;5029030;28;20191;-94
2022/04/02 12:50:32;;;;;;;5.70;2.50;;;7.40;42.90;;;;;;5030171;28;20205;-94
2022/04/02 12:52:59;;;;;;;14.18;3.63;;;7.20;43.10;;;;;;5026553;28;20222;-94
2022/04/02 12:55:33;;;;;;;6.55;2.30;;;7.00;43.80;;;;;;5031369;28;20234;-94
2022/04/02 12:58:05;;;;;;;4.53;2.17;;;7.10;43.30;;;;;;5036428;28;20186;-94
2022/04/02 13:00:32;;;;;;;5.53;2.75;;;7.10;42.50;;;;;;5036261;28;20198;-94
2022/04/02 13:03:00;;;;;;;7.10;3.10;;;6.80;42.50;;;;;;5035900;28;20266;-94
2022/04/02 13:05:44;;;;;;;7.43;2.40;;;6.70;43.00;;;;;;5033268;28;20182;-94
2022/04/02 13:08:26;;;;;;;5.63;2.88;;;6.70;43.30;;;;;;5034840;28;20197;-94
2022/04/02 13:10:55;;;;;;;2.33;2.10;;;6.90;43.40;;;;;;5027880;28;20630;-94
2022/04/02 13:13:37;;;;;;;3.58;2.45;;;6.90;43.10;;;;;;5027284;28;20198;-94
2022/04/02 13:16:04;;;;;;;6.50;2.70;;;7.30;42.90;;;;;;5016359;28;20205;-94
2022/04/02 13:21:22;;;;;;;3.88;2.22;;;7.20;42.30;;;;;;5029246;28;20194;-94
2022/04/02 13:24:27;;;;;;;3.97;3.20;;;7.50;41.80;;;;;;5031336;28;20221;-93
2022/04/02 13:27:09;;;;;;;7.82;2.20;;;7.40;41.40;;;;;;5036474;28;20170;-94
2022/04/02 13:29:37;;;;;;;3.90;2.25;;;7.50;41.40;;;;;;5033220;28;20198;-94
2022/04/02 13:32:26;;;;;;;9.75;3.00;;;7.50;41.50;;;;;;5031935;28;20211;-92
2022/04/02 13:35:15;;;;;;;5.22;2.05;;;7.30;41.70;;;;;;5032115;28;20201;-92
2022/04/02 13:38:16;;;;;;;4.13;2.47;;;7.40;41.90;;;;;;5034716;28;20370;-92
2022/04/02 13:40:46;;;;;;;4.93;2.20;;;7.40;41.60;;;;;;5025301;28;20255;-91
2022/04/02 13:43:25;;;;;;;3.05;1.95;;;7.30;41.80;;;;;;5037928;28;20186;-91
2022/04/02 13:45:53;;;;;;;5.35;2.50;;;7.10;41.60;;;;;;5039005;28;20167;-90
2022/04/02 13:48:22;;;;;;;6.70;2.22;;;7.20;42.00;;;;;;5023039;28;20179;-92
2022/04/02 13:51:05;;;;;;;2.10;1.83;;;7.50;41.80;;;;;;5039223;28;20173;-93
2022/04/02 13:53:37;;;;;;;2.90;2.10;;;7.70;41.10;;;;;;5038878;28;20202;-93
2022/04/02 13:56:24;;;;;;;3.20;1.90;;;7.70;40.60;;;;;;5022264;28;20167;-92
2022/04/02 13:58:56;;;;;;;3.10;2.70;;;7.70;41.00;;;;;;5036508;28;20194;-92
2022/04/02 14:01:26;;;;;;;2.70;2.00;;;7.80;41.20;;;;;;5018528;28;20206;-92
2022/04/02 14:04:08;;;;;;;2.08;1.88;;;7.90;40.40;;;;;;5019382;28;20190;-92
2022/04/02 14:06:36;;;;;;;6.28;2.30;;;8.20;40.20;;;;;;5003130;28;20673;-91
2022/04/02 14:09:04;;;;;;;2.90;1.90;;;8.30;40.00;;;;;;5016758;28;20181;-92
2022/04/02 14:11:45;;;;;;;3.85;1.90;;;8.20;38.70;;;;;;5016408;28;20182;-91
2022/04/02 14:14:20;;;;;;;2.20;2.00;;;7.50;39.00;;;;;;5015313;28;20209;-91
2022/04/02 14:17:02;;;;;;;2.47;2.25;;;7.20;39.00;;;;;;5017249;28;20193;-92
2022/04/02 14:19:48;;;;;;;5.90;2.33;;;7.30;39.80;;;;;;5017224;28;20174;-92
2022/04/02 14:22:20;;;;;;;4.00;2.20;;;7.30;40.40;;;;;;5017305;28;20202;-92
2022/04/02 14:24:56;;;;;;;2.35;1.85;;;7.20;40.70;;;;;;5019552;28;20646;-92
2022/04/02 14:27:50;;;;;;;5.40;2.88;;;7.30;41.30;;;;;;5017970;28;20171;-92
2022/04/02 14:30:45;;;;;;;3.33;2.45;;;7.80;41.60;;;;;;5015761;28;20182;-92
2022/04/02 14:33:30;;;;;;;3.85;2.90;;;8.20;41.90;;;;;;4992617;28;20214;-91
2022/04/02 14:36:34;;;;;;;2.53;2.05;;;8.30;41.50;;;;;;5018087;28;20183;-93
2022/04/02 14:39:25;;;;;;;3.28;2.38;;;8.20;41.00;;;;;;4994124;28;20554;-91
2022/04/02 14:42:11;;;;;;;3.67;2.38;;;7.90;40.60;;;;;;5019520;28;20236;-92
2022/04/02 14:45:11;;;;;;;2.63;1.98;;;7.80;40.20;;;;;;5017393;28;20196;-91
2022/04/02 14:47:57;;;;;;;3.33;2.30;;;7.60;40.10;;;;;;5015989;28;20167;-91
2022/04/02 14:51:11;;;;;;;2.08;1.77;;;7.50;40.20;;;;;;5016932;28;20183;-91
2022/04/02 14:54:09;;;;;;;7.55;1.80;;;7.50;40.20;;;;;;4961214;28;20203;-92
2022/04/02 14:57:11;;;;;;;3.85;2.05;;;7.40;39.80;;;;;;4970126;28;20195;-92
2022/04/02 15:00:05;;;;;;;6.70;2.03;;;7.40;39.90;;;;;;5010903;28;20186;-92
2022/04/02 15:02:52;;;;;;;2.55;2.30;;;7.40;39.40;;;;;;5011701;28;20293;-92
2022/04/02 15:05:56;;;;;;;3.22;2.47;;;7.30;39.70;;;;;;5000562;28;20239;-92
2022/04/02 15:09:00;;;;;;;4.47;2.13;;;7.70;39.60;;;;;;4997156;28;20197;-93
2022/04/02 15:11:33;;;;;;;3.10;2.38;;;7.80;39.50;;;;;;4999026;28;20205;-93
2022/04/02 15:14:12;;;;;;;3.17;1.80;;;7.50;39.60;;;;;;5003105;28;20222;-92
2022/04/02 15:16:39;;;;;;;3.60;2.38;;;7.60;39.80;;;;;;5000950;28;20223;-92
2022/04/02 15:19:25;;;;;;;4.32;3.50;;;7.60;40.40;;;;;;5000951;28;20238;-92
2022/04/02 15:21:59;;;;;;;5.20;2.30;;;7.60;42.20;;;;;;5011311;28;20186;-92
2022/04/02 15:24:26;;;;;;;2.70;2.20;;;7.40;43.30;;;;;;5015703;28;20190;-91
2022/04/02 15:26:55;;;;;;;2.75;2.25;;;7.30;45.50;;;;;;5018303;28;20178;-92
2022/04/02 15:29:35;;;;;;;3.05;2.50;;;7.40;47.20;;;;;;5023462;28;20252;-92
2022/04/02 15:32:05;;;;;;;2.75;2.17;;;7.30;47.40;;;;;;5000047;28;20573;-93
2022/04/02 15:34:35;;;;;;;6.47;2.53;;;7.30;47.10;;;;;;5019948;28;20254;-92
2022/04/02 15:37:09;;;;;;;2.40;2.20;;;7.30;46.80;;;;;;5019946;28;20667;-93
2022/04/02 15:39:38;;;;;;;2.95;2.70;;;7.30;46.10;;;;;;5020714;28;20188;-92
2022/04/02 15:42:25;;;;;;;5.60;3.00;;;7.10;45.60;;;;;;5019614;28;20195;-92
2022/04/02 15:45:09;;;;;;;5.13;2.88;;;7.40;45.40;;;;;;5019128;28;20209;-92
2022/04/02 15:47:43;;;;;;;6.35;3.10;;;7.10;44.70;;;;;;5019132;28;20245;-93
2022/04/02 15:50:11;;;;;;;2.50;2.30;;;7.00;45.00;;;;;;5018528;28;20176;-93
2022/04/02 15:52:38;;;;;;;4.07;3.13;;;7.20;45.00;;;;;;5023267;28;20206;-91
2022/04/02 15:55:18;;;;;;;2.63;2.22;;;7.20;44.70;;;;;;5028271;28;20179;-93
2022/04/02 15:58:10;;;;;;;2.97;2.05;;;7.20;44.20;;;;;;5023774;28;20167;-92
2022/04/02 16:00:56;;;;;;;3.13;2.45;;;7.30;44.10;;;;;;5019871;28;20348;-92
2022/04/02 16:03:36;;;;;;;2.70;2.38;;;7.20;44.10;;;;;;5019005;28;20682;-93
2022/04/02 16:06:15;;;;;;;3.15;2.20;;;7.30;44.70;;;;;;5016194;28;20583;-92
2022/04/02 16:08:55;;;;;;;3.20;2.90;;;7.30;45.50;;;;;;5015388;28;20178;-92
2022/04/02 16:11:41;;;;;;;2.65;1.73;;;7.30;46.00;;;;;;5014278;28;20261;-92
2022/04/02 16:14:10;;;;;;;6.65;2.28;;;7.20;46.70;;;;;;5015682;28;20186;-92
2022/04/02 16:16:51;;;;;;;2.83;2.10;;;7.30;46.80;;;;;;5016634;28;20189;-92
2022/04/02 16:19:44;;;;;;;4.68;2.45;;;7.40;46.40;;;;;;5021322;28;20181;-91
2022/04/02 16:22:15;;;;;;;6.88;2.58;;;7.20;45.90;;;;;;5021051;28;20218;-92
2022/04/02 16:24:50;;;;;;;3.15;2.05;;;7.10;45.30;;;;;;5024380;28;20189;-92
2022/04/02 16:27:16;;;;;;;2.58;1.80;;;7.10;45.30;;;;;;5023072;28;20270;-93
2022/04/02 16:29:42;;;;;;;2.45;2.00;;;6.90;45.10;;;;;;5025092;28;20212;-92
2022/04/02 16:32:12;;;;;;;3.92;2.05;;;6.70;45.30;;;;;;5025183;28;20199;-93
2022/04/02 16:34:43;;;;;;;6.30;2.03;;;6.80;45.40;;;;;;5023063;28;20194;-93
2022/04/02 16:37:19;;;;;;;7.32;2.47;;;6.90;45.30;;;;;;5035162;28;20179;-94
2022/04/02 16:39:47;;;;;;;7.35;2.28;;;7.10;45.20;;;;;;5039566;28;20184;-93
2022/04/02 16:42:21;;;;;;;3.10;2.70;;;7.20;44.90;;;;;;5040196;28;20210;-93
2022/04/02 16:44:58;;;;;;;4.25;2.13;;;7.10;45.10;;;;;;5037664;28;20174;-93
2022/04/02 16:47:28;;;;;;;2.85;1.70;;;7.10;45.10;;;;;;5035799;28;20182;-93
2022/04/02 16:49:56;;;;;;;2.25;1.65;;;7.00;44.60;;;;;;5037185;28;20178;-93
2022/04/02 16:52:27;;;;;;;4.40;1.80;;;6.80;44.60;;;;;;5034929;28;20203;-92
2022/04/02 16:54:54;;;;;;;5.47;1.83;;;6.80;45.00;;;;;;5024823;28;20175;-92
2022/04/02 16:57:33;;;;;;;2.22;1.70;;;6.70;45.60;;;;;;5025132;28;20186;-92
2022/04/02 17:00:11;;;;;;;2.30;2.10;;;6.60;45.90;;;;;;5024326;28;20193;-93
2022/04/02 17:02:42;;;;;;;4.20;2.10;;;6.70;46.60;;;;;;5023950;28;20218;-93
2022/04/02 17:05:10;;;;;;;3.10;2.03;;;6.70;46.90;;;;;;5024070;28;20232;-93
2022/04/02 17:08:12;;;;;;;3.50;2.10;;;6.80;47.00;;;;;;5021509;28;20201;-93
2022/04/02 17:10:38;;;;;;;2.05;1.40;;;6.60;47.60;;;;;;5020102;28;20174;-92
2022/04/02 17:13:06;;;;;;;3.10;1.80;;;6.80;47.90;;;;;;5021442;28;20205;-92
2022/04/02 17:15:33;;;;;;;3.42;2.55;;;6.80;48.10;;;;;;5021608;28;20477;-92
2022/04/02 17:18:07;;;;;;;1.92;1.58;;;6.80;47.90;;;;;;5021241;28;20186;-92
2022/04/02 17:20:33;;;;;;;1.63;1.40;;;6.80;47.30;;;;;;5017657;28;20202;-91
2022/04/02 17:23:02;;;;;;;9.57;2.15;;;6.40;47.40;;;;;;5018095;28;20198;-91
2022/04/02 17:25:39;;;;;;;1.90;1.80;;;6.30;47.90;;;;;;5019612;28;20175;-91
2022/04/02 17:28:10;;;;;;;9.02;1.88;;;6.40;48.00;;;;;;5021300;28;20186;-91
2022/04/02 17:30:41;;;;;;;2.30;1.70;;;6.50;48.00;;;;;;5021579;28;20387;-92
2022/04/02 17:33:07;;;;;;;3.08;1.90;;;6.40;47.60;;;;;;5023230;28;20218;-92
2022/04/02 17:35:36;;;;;;;4.57;2.37;;;6.40;47.50;;;;;;5024939;28;20230;-93
2022/04/02 17:38:17;;;;;;;1.70;1.60;;;6.50;47.50;;;;;;5023937;28;20410;-93
2022/04/02 17:40:44;;;;;;;5.13;2.10;;;6.50;47.20;;;;;;5023582;28;20194;-92
2022/04/02 17:43:09;;;;;;;8.32;2.38;;;6.60;47.10;;;;;;5021806;28;20218;-92
2022/04/02 17:45:37;;;;;;;3.27;1.50;;;6.50;47.30;;;;;;5021473;28;20189;-92
2022/04/02 17:48:26;;;;;;;2.65;1.92;;;6.40;47.60;;;;;;5024562;28;20449;-92
2022/04/02 17:51:00;;;;;;;2.63;1.85;;;6.50;48.00;;;;;;5029342;28;20166;-92
2022/04/02 17:53:41;;;;;;;2.78;1.95;;;6.30;48.70;;;;;;5036864;28;20678;-92
2022/04/02 17:56:11;;;;;;;2.58;2.00;;;6.20;49.10;;;;;;5038964;28;20182;-93
2022/04/02 17:58:45;;;;;;;3.78;1.70;;;6.20;49.30;;;;;;5039465;28;20155;-92
2022/04/02 18:01:38;;;;;;;4.43;1.95;;;6.30;49.70;;;;;;5037747;28;20209;-92
2022/04/02 18:04:16;;;;;;;3.72;2.08;;;6.40;49.50;;;;;;5032857;28;20265;-93
2022/04/02 18:06:49;;;;;;;4.22;2.72;;;6.50;49.50;;;;;;5024286;28;20167;-92
2022/04/02 18:09:16;;;;;;;5.78;2.88;;;6.50;49.60;;;;;;5022754;28;20230;-92
2022/04/02 18:11:43;;;;;;;7.50;2.40;;;6.50;49.70;;;;;;5022609;28;20186;-92
2022/04/02 18:14:09;;;;;;;2.50;2.10;;;6.30;50.00;;;;;;5020528;28;20654;-92
2022/04/02 18:16:35;;;;;;;7.37;2.83;;;6.30;50.40;;;;;;5020245;28;20189;-91
2022/04/02 18:19:02;;;;;;;3.60;2.80;;;6.20;50.60;;;;;;5023351;28;20270;-93
2022/04/02 18:21:29;;;;;;;3.00;2.17;;;6.10;51.30;;;;;;5032298;28;20234;-92
2022/04/02 18:23:57;;;;;;;5.05;2.78;;;6.00;52.00;;;;;;5035360;28;20284;-92
2022/04/02 18:26:23;;;;;;;8.35;3.00;;;6.00;53.10;;;;;;5023404;28;20191;-92
2022/04/02 18:28:50;;;;;;;4.35;2.20;;;6.00;53.80;;;;;;5021692;28;20171;-92
2022/04/02 18:31:16;;;;;;;4.43;2.30;;;6.10;53.90;;;;;;5019809;28;20260;-93
2022/04/02 18:33:42;;;;;;;5.63;2.55;;;6.20;54.00;;;;;;5020767;28;20553;-92
2022/04/02 18:36:10;;;;;;;2.25;1.90;;;6.00;53.80;;;;;;5024071;28;20186;-92
2022/04/02 18:38:36;;;;;;;5.47;3.45;;;6.00;54.10;;;;;;5031226;28;20175;-92
2022/04/02 18:41:02;;;;;;;6.05;2.65;;;6.00;53.80;;;;;;5026265;28;20210;-92